sensor_id;sensor_type;location;lat;lon;timestamp;temperature;humidity
9466;DHT22;4771;48.726;9.006;2023-07-13T00:00:36;20.10;99.90
9466;DHT22;4771;48.726;9.006;2023-07-13T00:03:04;20.00;99.90
9466;DHT22;4771;48.726;9.006;2023-07-13T00:05:31;20.00;99.90
9466;DHT22;4771;48.726;9.006;2023-07-13T00:07:58;19.90;99.90
9466;DHT22;4771;48.726;9.006;2023-07-13T00:10:25;19.90;99.90
9466;DHT22;4771;48.726;9.006;2023-07-13T00:12:52;19.90;99.90
9466;DHT22;4771;48.726;9.006;2023-07-13T00:15:23;19.80;99.90
9466;DHT22;4771;48.726;9.006;2023-07-13T00:17:50;19.80;99.90
9466;DHT22;4771;48.726;9.006;2023-07-13T00:20:19;19.80;99.90
9466;DHT22;4771;48.726;9.006;2023-07-13T00:22:47;19.70;99.90
9466;DHT22;4771;48.726;9.006;2023-07-13T00:25:15;19.70;99.90
9466;DHT22;4771;48.726;9.006;2023-07-13T00:27:42;19.60;99.90
9466;DHT22;4771;48.726;9.006;2023-07-13T00:30:10;19.60;99.90
9466;DHT22;4771;48.726;9.006;2023-07-13T00:32:37;19.50;99.90
9466;DHT22;4771;48.726;9.006;2023-07-13T00:35:05;19.60;99.90
9466;DHT22;4771;48.726;9.006;2023-07-13T00:37:33;19.60;99.90
9466;DHT22;4771;48.726;9.006;2023-07-13T00:40:01;19.60;99.90
9466;DHT22;4771;48.726;9.006;2023-07-13T00:42:29;19.50;99.90
9466;DHT22;4771;48.726;9.006;2023-07-13T00:45:04;19.40;99.90
9466;DHT22;4771;48.726;9.006;2023-07-13T00:47:31;19.40;99.90
9466;DHT22;4771;48.726;9.006;2023-07-13T00:49:59;19.40;99.90
9466;DHT22;4771;48.726;9.006;2023-07-13T00:52:26;19.30;99.90
9466;DHT22;4771;48.726;9.006;2023-07-13T00:54:56;19.30;99.90
9466;DHT22;4771;48.726;9.006;2023-07-13T00:57:23;19.30;99.90
9466;DHT22;4771;48.726;9.006;2023-07-13T00:59:54;19.30;99.90
9466;DHT22;4771;48.726;9.006;2023-07-13T01:02:22;19.30;99.90
9466;DHT22;4771;48.726;9.006;2023-07-13T01:04:50;19.30;99.90
9466;DHT22;4771;48.726;9.006;2023-07-13T01:07:18;19.30;99.90
9466;DHT22;4771;48.726;9.006;2023-07-13T01:09:45;19.30;99.90
9466;DHT22;4771;48.726;9.006;2023-07-13T01:12:13;19.20;99.90
9466;DHT22;4771;48.726;9.006;2023-07-13T01:14:40;19.20;99.90
9466;DHT22;4771;48.726;9.006;2023-07-13T01:17:10;19.30;99.90
9466;DHT22;4771;48.726;9.006;2023-07-13T01:19:39;19.20;99.90
9466;DHT22;4771;48.726;9.006;2023-07-13T01:22:10;19.20;99.90
9466;DHT22;4771;48.726;9.006;2023-07-13T01:24:39;19.20;99.90
9466;DHT22;4771;48.726;9.006;2023-07-13T01:27:09;19.20;99.90
9466;DHT22;4771;48.726;9.006;2023-07-13T01:29:38;19.20;99.90
9466;DHT22;4771;48.726;9.006;2023-07-13T01:32:07;19.20;99.90
9466;DHT22;4771;48.726;9.006;2023-07-13T01:34:35;19.10;99.90
9466;DHT22;4771;48.726;9.006;2023-07-13T01:37:03;19.10;99.90
9466;DHT22;4771;48.726;9.006;2023-07-13T01:39:31;19.00;99.90
9466;DHT22;4771;48.726;9.006;2023-07-13T01:41:58;19.00;99.90
9466;DHT22;4771;48.726;9.006;2023-07-13T01:44:25;19.00;99.90
9466;DHT22;4771;48.726;9.006;2023-07-13T01:46:53;18.90;99.90
9466;DHT22;4771;48.726;9.006;2023-07-13T01:49:20;18.80;99.90
9466;DHT22;4771;48.726;9.006;2023-07-13T01:51:47;18.90;99.90
9466;DHT22;4771;48.726;9.006;2023-07-13T01:54:14;18.90;99.90
9466;DHT22;4771;48.726;9.006;2023-07-13T01:56:42;18.90;99.90
9466;DHT22;4771;48.726;9.006;2023-07-13T01:59:09;18.80;99.90
9466;DHT22;4771;48.726;9.006;2023-07-13T02:01:36;18.80;99.90
9466;DHT22;4771;48.726;9.006;2023-07-13T02:04:03;18.80;99.90
9466;DHT22;4771;48.726;9.006;2023-07-13T02:06:30;18.80;99.90
9466;DHT22;4771;48.726;9.006;2023-07-13T02:08:57;18.80;99.90
9466;DHT22;4771;48.726;9.006;2023-07-13T02:11:24;18.80;99.90
9466;DHT22;4771;48.726;9.006;2023-07-13T02:13:59;18.80;99.90
9466;DHT22;4771;48.726;9.006;2023-07-13T02:16:26;18.80;99.90
9466;DHT22;4771;48.726;9.006;2023-07-13T02:18:53;18.80;99.90
9466;DHT22;4771;48.726;9.006;2023-07-13T02:21:21;18.80;99.90
9466;DHT22;4771;48.726;9.006;2023-07-13T02:23:48;18.80;99.90
9466;DHT22;4771;48.726;9.006;2023-07-13T02:26:16;18.80;99.90
9466;DHT22;4771;48.726;9.006;2023-07-13T02:28:43;18.70;99.90
9466;DHT22;4771;48.726;9.006;2023-07-13T02:31:13;18.80;99.90
9466;DHT22;4771;48.726;9.006;2023-07-13T02:33:41;18.80;99.90
9466;DHT22;4771;48.726;9.006;2023-07-13T02:36:08;18.70;99.90
9466;DHT22;4771;48.726;9.006;2023-07-13T02:38:36;18.70;99.90
9466;DHT22;4771;48.726;9.006;2023-07-13T02:41:03;18.60;99.90
9466;DHT22;4771;48.726;9.006;2023-07-13T02:43:30;18.60;99.90
9466;DHT22;4771;48.726;9.006;2023-07-13T02:45:58;18.60;99.90
9466;DHT22;4771;48.726;9.006;2023-07-13T02:48:30;18.50;99.90
9466;DHT22;4771;48.726;9.006;2023-07-13T02:50:57;18.40;99.90
9466;DHT22;4771;48.726;9.006;2023-07-13T02:53:24;18.40;99.90
9466;DHT22;4771;48.726;9.006;2023-07-13T02:55:51;18.40;99.90
9466;DHT22;4771;48.726;9.006;2023-07-13T02:58:18;18.40;99.90
9466;DHT22;4771;48.726;9.006;2023-07-13T03:00:46;18.30;99.90
9466;DHT22;4771;48.726;9.006;2023-07-13T03:03:13;18.30;99.90
9466;DHT22;4771;48.726;9.006;2023-07-13T03:05:43;18.30;99.90
9466;DHT22;4771;48.726;9.006;2023-07-13T03:08:16;18.20;99.90
9466;DHT22;4771;48.726;9.006;2023-07-13T03:10:43;18.20;99.90
9466;DHT22;4771;48.726;9.006;2023-07-13T03:13:10;18.10;99.90
9466;DHT22;4771;48.726;9.006;2023-07-13T03:15:37;18.10;99.90
9466;DHT22;4771;48.726;9.006;2023-07-13T03:18:04;18.10;99.90
9466;DHT22;4771;48.726;9.006;2023-07-13T03:20:32;18.10;99.90
9466;DHT22;4771;48.726;9.006;2023-07-13T03:23:01;18.10;99.90
9466;DHT22;4771;48.726;9.006;2023-07-13T03:25:28;18.10;99.90
9466;DHT22;4771;48.726;9.006;2023-07-13T03:27:55;18.00;99.90
9466;DHT22;4771;48.726;9.006;2023-07-13T03:30:22;18.00;99.90
9466;DHT22;4771;48.726;9.006;2023-07-13T03:32:49;18.00;99.90
9466;DHT22;4771;48.726;9.006;2023-07-13T03:35:16;18.00;99.90
9466;DHT22;4771;48.726;9.006;2023-07-13T03:37:43;18.00;99.90
9466;DHT22;4771;48.726;9.006;2023-07-13T03:40:12;18.00;99.90
9466;DHT22;4771;48.726;9.006;2023-07-13T03:42:39;18.00;99.90
9466;DHT22;4771;48.726;9.006;2023-07-13T03:45:08;17.90;99.90
9466;DHT22;4771;48.726;9.006;2023-07-13T03:47:35;17.90;99.90
9466;DHT22;4771;48.726;9.006;2023-07-13T03:50:02;17.90;99.90
9466;DHT22;4771;48.726;9.006;2023-07-13T03:52:29;17.90;99.90
9466;DHT22;4771;48.726;9.006;2023-07-13T03:54:56;17.90;99.90
9466;DHT22;4771;48.726;9.006;2023-07-13T03:57:24;17.90;99.90
9466;DHT22;4771;48.726;9.006;2023-07-13T03:59:51;17.90;99.90
9466;DHT22;4771;48.726;9.006;2023-07-13T04:02:18;18.00;99.90
9466;DHT22;4771;48.726;9.006;2023-07-13T04:04:45;17.90;99.90
9466;DHT22;4771;48.726;9.006;2023-07-13T04:07:12;17.90;99.90
9466;DHT22;4771;48.726;9.006;2023-07-13T04:09:39;17.90;99.90
9466;DHT22;4771;48.726;9.006;2023-07-13T04:12:06;17.90;99.90
9466;DHT22;4771;48.726;9.006;2023-07-13T04:14:35;17.80;99.90
9466;DHT22;4771;48.726;9.006;2023-07-13T04:17:02;17.80;99.90
9466;DHT22;4771;48.726;9.006;2023-07-13T04:19:29;17.80;99.90
9466;DHT22;4771;48.726;9.006;2023-07-13T04:21:55;17.80;99.90
9466;DHT22;4771;48.726;9.006;2023-07-13T04:24:22;17.80;99.90
9466;DHT22;4771;48.726;9.006;2023-07-13T04:26:49;17.70;99.90
9466;DHT22;4771;48.726;9.006;2023-07-13T04:29:16;17.70;99.90
9466;DHT22;4771;48.726;9.006;2023-07-13T04:31:44;17.70;99.90
9466;DHT22;4771;48.726;9.006;2023-07-13T04:34:11;17.70;99.90
9466;DHT22;4771;48.726;9.006;2023-07-13T04:36:38;17.60;99.90
9466;DHT22;4771;48.726;9.006;2023-07-13T04:39:05;17.60;99.90
9466;DHT22;4771;48.726;9.006;2023-07-13T04:41:32;17.60;99.90
9466;DHT22;4771;48.726;9.006;2023-07-13T04:43:59;17.50;99.90
9466;DHT22;4771;48.726;9.006;2023-07-13T04:46:26;17.50;99.90
9466;DHT22;4771;48.726;9.006;2023-07-13T04:48:54;17.60;99.90
9466;DHT22;4771;48.726;9.006;2023-07-13T04:51:22;17.50;99.90
9466;DHT22;4771;48.726;9.006;2023-07-13T04:53:49;17.50;99.90
9466;DHT22;4771;48.726;9.006;2023-07-13T04:56:16;17.50;99.90
9466;DHT22;4771;48.726;9.006;2023-07-13T04:58:43;17.40;99.90
9466;DHT22;4771;48.726;9.006;2023-07-13T05:01:09;17.40;99.90
9466;DHT22;4771;48.726;9.006;2023-07-13T05:03:36;17.40;99.90
9466;DHT22;4771;48.726;9.006;2023-07-13T05:06:07;17.30;99.90
9466;DHT22;4771;48.726;9.006;2023-07-13T05:08:35;17.40;99.90
9466;DHT22;4771;48.726;9.006;2023-07-13T05:11:04;17.40;99.90
9466;DHT22;4771;48.726;9.006;2023-07-13T05:13:32;17.40;99.90
9466;DHT22;4771;48.726;9.006;2023-07-13T05:16:00;17.50;99.90
9466;DHT22;4771;48.726;9.006;2023-07-13T05:18:28;17.50;99.90
9466;DHT22;4771;48.726;9.006;2023-07-13T05:20:58;17.50;99.90
9466;DHT22;4771;48.726;9.006;2023-07-13T05:23:26;17.60;99.90
9466;DHT22;4771;48.726;9.006;2023-07-13T05:25:53;17.70;99.90
9466;DHT22;4771;48.726;9.006;2023-07-13T05:28:21;17.70;99.90
9466;DHT22;4771;48.726;9.006;2023-07-13T05:30:48;17.80;99.90
9466;DHT22;4771;48.726;9.006;2023-07-13T05:33:16;17.80;99.90
9466;DHT22;4771;48.726;9.006;2023-07-13T05:35:43;17.80;99.90
9466;DHT22;4771;48.726;9.006;2023-07-13T05:38:10;17.80;99.90
9466;DHT22;4771;48.726;9.006;2023-07-13T05:40:38;17.90;99.90
9466;DHT22;4771;48.726;9.006;2023-07-13T05:43:05;17.90;99.90
9466;DHT22;4771;48.726;9.006;2023-07-13T05:45:32;17.90;99.90
9466;DHT22;4771;48.726;9.006;2023-07-13T05:47:59;17.90;99.90
9466;DHT22;4771;48.726;9.006;2023-07-13T05:50:26;18.00;99.90
9466;DHT22;4771;48.726;9.006;2023-07-13T05:52:53;18.00;99.90
9466;DHT22;4771;48.726;9.006;2023-07-13T05:55:20;18.00;99.90
9466;DHT22;4771;48.726;9.006;2023-07-13T05:57:49;18.00;99.90
9466;DHT22;4771;48.726;9.006;2023-07-13T06:00:16;18.10;99.90
9466;DHT22;4771;48.726;9.006;2023-07-13T06:02:43;18.10;99.90
9466;DHT22;4771;48.726;9.006;2023-07-13T06:05:10;18.20;99.90
9466;DHT22;4771;48.726;9.006;2023-07-13T06:07:38;18.10;99.90
9466;DHT22;4771;48.726;9.006;2023-07-13T06:10:05;18.20;99.90
9466;DHT22;4771;48.726;9.006;2023-07-13T06:12:32;18.20;99.90
9466;DHT22;4771;48.726;9.006;2023-07-13T06:15:01;18.20;99.90
9466;DHT22;4771;48.726;9.006;2023-07-13T06:17:28;18.30;99.90
9466;DHT22;4771;48.726;9.006;2023-07-13T06:19:55;18.30;99.90
9466;DHT22;4771;48.726;9.006;2023-07-13T06:22:22;18.30;99.90
9466;DHT22;4771;48.726;9.006;2023-07-13T06:24:49;18.30;99.90
9466;DHT22;4771;48.726;9.006;2023-07-13T06:27:16;18.40;99.90
9466;DHT22;4771;48.726;9.006;2023-07-13T06:29:43;18.30;99.90
9466;DHT22;4771;48.726;9.006;2023-07-13T06:32:12;18.30;99.90
9466;DHT22;4771;48.726;9.006;2023-07-13T06:34:39;18.40;99.90
9466;DHT22;4771;48.726;9.006;2023-07-13T06:37:06;18.40;99.90
9466;DHT22;4771;48.726;9.006;2023-07-13T06:39:33;18.50;99.90
9466;DHT22;4771;48.726;9.006;2023-07-13T06:42:00;18.40;99.90
9466;DHT22;4771;48.726;9.006;2023-07-13T06:44:26;18.40;99.90
9466;DHT22;4771;48.726;9.006;2023-07-13T06:46:53;18.50;99.90
9466;DHT22;4771;48.726;9.006;2023-07-13T06:49:24;18.60;99.90
9466;DHT22;4771;48.726;9.006;2023-07-13T06:51:50;18.70;99.90
9466;DHT22;4771;48.726;9.006;2023-07-13T06:54:17;18.70;99.90
9466;DHT22;4771;48.726;9.006;2023-07-13T06:56:44;18.80;99.90
9466;DHT22;4771;48.726;9.006;2023-07-13T06:59:11;18.90;99.90
9466;DHT22;4771;48.726;9.006;2023-07-13T07:01:38;18.90;99.90
9466;DHT22;4771;48.726;9.006;2023-07-13T07:04:05;19.00;99.90
9466;DHT22;4771;48.726;9.006;2023-07-13T07:06:33;19.00;99.90
9466;DHT22;4771;48.726;9.006;2023-07-13T07:09:00;19.00;99.90
9466;DHT22;4771;48.726;9.006;2023-07-13T07:11:27;19.00;99.90
9466;DHT22;4771;48.726;9.006;2023-07-13T07:13:54;19.10;99.90
9466;DHT22;4771;48.726;9.006;2023-07-13T07:16:21;19.10;99.90
9466;DHT22;4771;48.726;9.006;2023-07-13T07:18:48;19.20;99.90
9466;DHT22;4771;48.726;9.006;2023-07-13T07:21:15;19.20;99.90
9466;DHT22;4771;48.726;9.006;2023-07-13T07:23:44;19.30;99.90
9466;DHT22;4771;48.726;9.006;2023-07-13T07:26:10;19.30;99.90
9466;DHT22;4771;48.726;9.006;2023-07-13T07:28:37;19.30;99.90
9466;DHT22;4771;48.726;9.006;2023-07-13T07:31:04;19.40;99.90
9466;DHT22;4771;48.726;9.006;2023-07-13T07:33:32;19.40;99.90
9466;DHT22;4771;48.726;9.006;2023-07-13T07:36:00;19.40;99.90
9466;DHT22;4771;48.726;9.006;2023-07-13T07:38:27;19.50;99.90
9466;DHT22;4771;48.726;9.006;2023-07-13T07:40:55;19.60;99.90
9466;DHT22;4771;48.726;9.006;2023-07-13T07:43:22;19.70;99.90
9466;DHT22;4771;48.726;9.006;2023-07-13T07:45:49;19.70;99.90
9466;DHT22;4771;48.726;9.006;2023-07-13T07:48:16;19.80;99.40
9466;DHT22;4771;48.726;9.006;2023-07-13T07:50:43;19.80;99.20
9466;DHT22;4771;48.726;9.006;2023-07-13T07:53:10;19.80;97.60
9466;DHT22;4771;48.726;9.006;2023-07-13T07:55:38;19.80;94.70
9466;DHT22;4771;48.726;9.006;2023-07-13T07:58:07;19.80;94.80
9466;DHT22;4771;48.726;9.006;2023-07-13T08:00:34;19.80;93.60
9466;DHT22;4771;48.726;9.006;2023-07-13T08:03:01;19.80;93.40
9466;DHT22;4771;48.726;9.006;2023-07-13T08:05:28;19.90;96.10
9466;DHT22;4771;48.726;9.006;2023-07-13T08:07:55;20.00;95.50
9466;DHT22;4771;48.726;9.006;2023-07-13T08:10:22;20.00;93.30
9466;DHT22;4771;48.726;9.006;2023-07-13T08:12:49;19.90;92.50
9466;DHT22;4771;48.726;9.006;2023-07-13T08:15:18;19.90;94.70
9466;DHT22;4771;48.726;9.006;2023-07-13T08:17:46;20.00;94.80
9466;DHT22;4771;48.726;9.006;2023-07-13T08:20:13;20.10;91.70
9466;DHT22;4771;48.726;9.006;2023-07-13T08:22:40;20.10;92.60
9466;DHT22;4771;48.726;9.006;2023-07-13T08:25:08;20.20;93.70
9466;DHT22;4771;48.726;9.006;2023-07-13T08:27:34;20.30;91.20
9466;DHT22;4771;48.726;9.006;2023-07-13T08:30:02;20.30;91.80
9466;DHT22;4771;48.726;9.006;2023-07-13T08:32:30;20.40;92.10
9466;DHT22;4771;48.726;9.006;2023-07-13T08:34:57;20.40;91.80
9466;DHT22;4771;48.726;9.006;2023-07-13T08:37:24;20.50;91.50
9466;DHT22;4771;48.726;9.006;2023-07-13T08:39:51;20.60;93.60
9466;DHT22;4771;48.726;9.006;2023-07-13T08:42:27;20.60;92.10
9466;DHT22;4771;48.726;9.006;2023-07-13T08:45:04;20.70;91.50
9466;DHT22;4771;48.726;9.006;2023-07-13T08:47:39;20.70;90.90
9466;DHT22;4771;48.726;9.006;2023-07-13T08:50:12;20.70;90.70
9466;DHT22;4771;48.726;9.006;2023-07-13T08:52:41;20.70;89.20
9466;DHT22;4771;48.726;9.006;2023-07-13T08:55:14;20.80;90.10
9466;DHT22;4771;48.726;9.006;2023-07-13T08:57:43;20.80;90.90
9466;DHT22;4771;48.726;9.006;2023-07-13T09:00:12;20.90;90.10
9466;DHT22;4771;48.726;9.006;2023-07-13T09:02:46;21.00;90.80
9466;DHT22;4771;48.726;9.006;2023-07-13T09:05:15;21.10;90.00
9466;DHT22;4771;48.726;9.006;2023-07-13T09:08:00;21.00;83.90
9466;DHT22;4771;48.726;9.006;2023-07-13T09:10:31;21.00;82.90
9466;DHT22;4771;48.726;9.006;2023-07-13T09:13:09;21.00;83.60
9466;DHT22;4771;48.726;9.006;2023-07-13T09:15:41;21.10;90.20
9466;DHT22;4771;48.726;9.006;2023-07-13T09:18:13;21.30;90.70
9466;DHT22;4771;48.726;9.006;2023-07-13T09:20:44;21.40;92.00
9466;DHT22;4771;48.726;9.006;2023-07-13T09:23:15;21.40;90.00
9466;DHT22;4771;48.726;9.006;2023-07-13T09:25:45;21.40;85.50
9466;DHT22;4771;48.726;9.006;2023-07-13T09:28:19;21.40;87.90
9466;DHT22;4771;48.726;9.006;2023-07-13T09:30:52;21.40;87.90
9466;DHT22;4771;48.726;9.006;2023-07-13T09:33:21;21.40;85.40
9466;DHT22;4771;48.726;9.006;2023-07-13T09:35:49;21.40;84.70
9466;DHT22;4771;48.726;9.006;2023-07-13T09:38:18;21.40;85.50
9466;DHT22;4771;48.726;9.006;2023-07-13T09:40:59;21.50;86.30
9466;DHT22;4771;48.726;9.006;2023-07-13T09:43:27;21.50;83.80
9466;DHT22;4771;48.726;9.006;2023-07-13T09:45:55;21.60;86.20
9466;DHT22;4771;48.726;9.006;2023-07-13T09:48:23;21.60;80.00
9466;DHT22;4771;48.726;9.006;2023-07-13T09:50:54;21.70;81.10
9466;DHT22;4771;48.726;9.006;2023-07-13T09:53:22;21.70;80.80
9466;DHT22;4771;48.726;9.006;2023-07-13T09:55:49;21.80;77.60
9466;DHT22;4771;48.726;9.006;2023-07-13T09:58:19;21.90;75.10
9466;DHT22;4771;48.726;9.006;2023-07-13T10:00:55;21.90;68.20
9466;DHT22;4771;48.726;9.006;2023-07-13T10:03:26;21.90;71.30
9466;DHT22;4771;48.726;9.006;2023-07-13T10:05:53;22.00;73.20
9466;DHT22;4771;48.726;9.006;2023-07-13T10:08:23;22.00;70.30
9466;DHT22;4771;48.726;9.006;2023-07-13T10:10:57;22.10;73.30
9466;DHT22;4771;48.726;9.006;2023-07-13T10:13:34;22.20;75.50
9466;DHT22;4771;48.726;9.006;2023-07-13T10:16:03;22.40;76.50
9466;DHT22;4771;48.726;9.006;2023-07-13T10:18:42;22.50;75.70
9466;DHT22;4771;48.726;9.006;2023-07-13T10:21:13;22.60;74.30
9466;DHT22;4771;48.726;9.006;2023-07-13T10:23:41;22.70;77.00
9466;DHT22;4771;48.726;9.006;2023-07-13T10:26:15;22.70;69.30
9466;DHT22;4771;48.726;9.006;2023-07-13T10:28:46;22.80;72.00
9466;DHT22;4771;48.726;9.006;2023-07-13T10:31:16;22.70;66.20
9466;DHT22;4771;48.726;9.006;2023-07-13T10:33:45;22.50;61.30
9466;DHT22;4771;48.726;9.006;2023-07-13T10:36:20;22.50;68.90
9466;DHT22;4771;48.726;9.006;2023-07-13T10:38:51;22.60;69.00
9466;DHT22;4771;48.726;9.006;2023-07-13T10:41:21;22.60;70.10
9466;DHT22;4771;48.726;9.006;2023-07-13T10:43:51;22.70;67.30
9466;DHT22;4771;48.726;9.006;2023-07-13T10:46:21;22.70;62.40
9466;DHT22;4771;48.726;9.006;2023-07-13T10:48:54;22.80;65.10
9466;DHT22;4771;48.726;9.006;2023-07-13T10:51:22;22.80;68.20
9466;DHT22;4771;48.726;9.006;2023-07-13T10:54:11;22.90;62.10
9466;DHT22;4771;48.726;9.006;2023-07-13T10:56:40;22.80;64.70
9466;DHT22;4771;48.726;9.006;2023-07-13T10:59:11;22.90;66.10
9466;DHT22;4771;48.726;9.006;2023-07-13T11:01:46;22.90;65.20
9466;DHT22;4771;48.726;9.006;2023-07-13T11:04:16;22.90;60.30
9466;DHT22;4771;48.726;9.006;2023-07-13T11:06:48;23.00;64.30
9466;DHT22;4771;48.726;9.006;2023-07-13T11:09:35;23.10;62.60
9466;DHT22;4771;48.726;9.006;2023-07-13T11:12:07;23.20;66.30
9466;DHT22;4771;48.726;9.006;2023-07-13T11:14:43;23.40;62.00
9466;DHT22;4771;48.726;9.006;2023-07-13T11:17:36;23.60;67.50
9466;DHT22;4771;48.726;9.006;2023-07-13T11:20:33;23.60;59.80
9466;DHT22;4771;48.726;9.006;2023-07-13T11:23:27;23.80;58.40
9466;DHT22;4771;48.726;9.006;2023-07-13T11:25:55;23.90;58.90
9466;DHT22;4771;48.726;9.006;2023-07-13T11:28:25;24.00;56.40
9466;DHT22;4771;48.726;9.006;2023-07-13T11:31:19;24.10;56.10
9466;DHT22;4771;48.726;9.006;2023-07-13T11:33:56;24.30;56.40
9466;DHT22;4771;48.726;9.006;2023-07-13T11:36:36;24.40;57.10
9466;DHT22;4771;48.726;9.006;2023-07-13T11:39:13;24.60;58.50
9466;DHT22;4771;48.726;9.006;2023-07-13T11:41:45;24.80;57.20
9466;DHT22;4771;48.726;9.006;2023-07-13T11:44:17;24.80;53.50
9466;DHT22;4771;48.726;9.006;2023-07-13T11:46:46;24.80;53.80
9466;DHT22;4771;48.726;9.006;2023-07-13T11:49:16;24.70;53.70
9466;DHT22;4771;48.726;9.006;2023-07-13T11:51:45;24.70;52.80
9466;DHT22;4771;48.726;9.006;2023-07-13T11:54:25;24.70;52.60
9466;DHT22;4771;48.726;9.006;2023-07-13T11:56:54;24.70;52.40
9466;DHT22;4771;48.726;9.006;2023-07-13T11:59:22;24.70;48.90
9466;DHT22;4771;48.726;9.006;2023-07-13T12:01:52;24.70;52.90
9466;DHT22;4771;48.726;9.006;2023-07-13T12:04:23;24.70;49.90
9466;DHT22;4771;48.726;9.006;2023-07-13T12:07:04;24.80;51.10
9466;DHT22;4771;48.726;9.006;2023-07-13T12:09:33;24.80;52.20
9466;DHT22;4771;48.726;9.006;2023-07-13T12:12:02;24.90;51.50
9466;DHT22;4771;48.726;9.006;2023-07-13T12:14:29;24.70;45.40
9466;DHT22;4771;48.726;9.006;2023-07-13T12:16:59;24.20;45.00
9466;DHT22;4771;48.726;9.006;2023-07-13T12:19:27;24.10;45.60
9466;DHT22;4771;48.726;9.006;2023-07-13T12:21:58;24.10;48.10
9466;DHT22;4771;48.726;9.006;2023-07-13T12:24:26;24.20;46.30
9466;DHT22;4771;48.726;9.006;2023-07-13T12:26:55;24.30;47.90
9466;DHT22;4771;48.726;9.006;2023-07-13T12:29:25;24.40;51.00
9466;DHT22;4771;48.726;9.006;2023-07-13T12:31:52;24.50;50.00
9466;DHT22;4771;48.726;9.006;2023-07-13T12:34:20;24.60;51.20
9466;DHT22;4771;48.726;9.006;2023-07-13T12:36:49;24.50;47.60
9466;DHT22;4771;48.726;9.006;2023-07-13T12:39:24;24.50;47.90
9466;DHT22;4771;48.726;9.006;2023-07-13T12:41:52;24.50;47.50
9466;DHT22;4771;48.726;9.006;2023-07-13T12:44:26;24.50;49.50
9466;DHT22;4771;48.726;9.006;2023-07-13T12:46:56;24.60;46.60
9466;DHT22;4771;48.726;9.006;2023-07-13T12:49:27;24.70;47.60
9466;DHT22;4771;48.726;9.006;2023-07-13T12:51:59;24.60;46.60
9466;DHT22;4771;48.726;9.006;2023-07-13T12:54:28;24.70;48.20
9466;DHT22;4771;48.726;9.006;2023-07-13T12:56:57;24.60;46.80
9466;DHT22;4771;48.726;9.006;2023-07-13T12:59:29;24.70;49.20
9466;DHT22;4771;48.726;9.006;2023-07-13T13:01:59;24.80;47.90
9466;DHT22;4771;48.726;9.006;2023-07-13T13:04:26;24.90;45.80
9466;DHT22;4771;48.726;9.006;2023-07-13T13:07:02;25.00;44.90
9466;DHT22;4771;48.726;9.006;2023-07-13T13:09:30;25.00;44.40
9466;DHT22;4771;48.726;9.006;2023-07-13T13:11:58;25.00;44.00
9466;DHT22;4771;48.726;9.006;2023-07-13T13:14:25;25.10;41.60
9466;DHT22;4771;48.726;9.006;2023-07-13T13:16:52;25.10;44.50
9466;DHT22;4771;48.726;9.006;2023-07-13T13:19:23;25.30;41.30
9466;DHT22;4771;48.726;9.006;2023-07-13T13:21:50;25.20;39.60
9466;DHT22;4771;48.726;9.006;2023-07-13T13:24:19;25.20;41.10
9466;DHT22;4771;48.726;9.006;2023-07-13T13:26:50;25.30;43.00
9466;DHT22;4771;48.726;9.006;2023-07-13T13:29:19;25.30;39.30
9466;DHT22;4771;48.726;9.006;2023-07-13T13:31:46;25.30;40.50
9466;DHT22;4771;48.726;9.006;2023-07-13T13:34:16;25.40;40.80
9466;DHT22;4771;48.726;9.006;2023-07-13T13:36:44;25.30;39.60
9466;DHT22;4771;48.726;9.006;2023-07-13T13:39:22;25.50;40.90
9466;DHT22;4771;48.726;9.006;2023-07-13T13:41:52;25.60;42.20
9466;DHT22;4771;48.726;9.006;2023-07-13T13:44:21;25.70;37.30
9466;DHT22;4771;48.726;9.006;2023-07-13T13:46:51;25.70;36.70
9466;DHT22;4771;48.726;9.006;2023-07-13T13:49:20;25.50;37.00
9466;DHT22;4771;48.726;9.006;2023-07-13T13:51:48;25.50;37.80
9466;DHT22;4771;48.726;9.006;2023-07-13T13:54:16;25.50;38.60
9466;DHT22;4771;48.726;9.006;2023-07-13T13:56:45;25.60;39.00
9466;DHT22;4771;48.726;9.006;2023-07-13T13:59:14;25.80;37.10
9466;DHT22;4771;48.726;9.006;2023-07-13T14:01:42;26.00;34.40
9466;DHT22;4771;48.726;9.006;2023-07-13T14:04:14;26.10;34.10
9466;DHT22;4771;48.726;9.006;2023-07-13T14:06:42;26.30;35.90
9466;DHT22;4771;48.726;9.006;2023-07-13T14:09:11;26.40;34.50
9466;DHT22;4771;48.726;9.006;2023-07-13T14:11:38;26.40;32.40
9466;DHT22;4771;48.726;9.006;2023-07-13T14:14:14;26.30;34.70
9466;DHT22;4771;48.726;9.006;2023-07-13T14:16:42;26.20;35.30
9466;DHT22;4771;48.726;9.006;2023-07-13T14:19:12;26.10;35.20
9466;DHT22;4771;48.726;9.006;2023-07-13T14:21:39;26.10;36.30
9466;DHT22;4771;48.726;9.006;2023-07-13T14:24:07;26.10;34.20
9466;DHT22;4771;48.726;9.006;2023-07-13T14:26:37;25.70;34.40
9466;DHT22;4771;48.726;9.006;2023-07-13T14:29:05;25.60;35.30
9466;DHT22;4771;48.726;9.006;2023-07-13T14:31:38;25.50;35.80
9466;DHT22;4771;48.726;9.006;2023-07-13T14:34:05;25.50;36.00
9466;DHT22;4771;48.726;9.006;2023-07-13T14:36:33;25.50;36.00
9466;DHT22;4771;48.726;9.006;2023-07-13T14:39:05;25.50;36.00
9466;DHT22;4771;48.726;9.006;2023-07-13T14:41:37;25.40;36.20
9466;DHT22;4771;48.726;9.006;2023-07-13T14:44:10;25.50;37.30
9466;DHT22;4771;48.726;9.006;2023-07-13T14:46:39;25.60;37.50
9466;DHT22;4771;48.726;9.006;2023-07-13T14:49:13;25.70;35.20
9466;DHT22;4771;48.726;9.006;2023-07-13T14:51:41;25.90;35.60
9466;DHT22;4771;48.726;9.006;2023-07-13T14:54:11;26.00;36.10
9466;DHT22;4771;48.726;9.006;2023-07-13T14:56:38;26.10;36.40
9466;DHT22;4771;48.726;9.006;2023-07-13T14:59:05;26.30;34.90
9466;DHT22;4771;48.726;9.006;2023-07-13T15:01:33;26.40;35.20
9466;DHT22;4771;48.726;9.006;2023-07-13T15:04:02;26.40;32.70
9466;DHT22;4771;48.726;9.006;2023-07-13T15:06:29;26.20;33.40
9466;DHT22;4771;48.726;9.006;2023-07-13T15:08:56;26.20;33.80
9466;DHT22;4771;48.726;9.006;2023-07-13T15:11:23;26.10;33.30
9466;DHT22;4771;48.726;9.006;2023-07-13T15:13:50;26.10;33.80
9466;DHT22;4771;48.726;9.006;2023-07-13T15:16:21;26.20;35.90
9466;DHT22;4771;48.726;9.006;2023-07-13T15:18:49;26.20;35.40
9466;DHT22;4771;48.726;9.006;2023-07-13T15:21:20;26.30;36.40
9466;DHT22;4771;48.726;9.006;2023-07-13T15:23:48;26.40;34.00
9466;DHT22;4771;48.726;9.006;2023-07-13T15:26:15;26.30;34.30
9466;DHT22;4771;48.726;9.006;2023-07-13T15:28:43;26.20;34.40
9466;DHT22;4771;48.726;9.006;2023-07-13T15:31:20;26.20;34.40
9466;DHT22;4771;48.726;9.006;2023-07-13T15:33:48;26.20;34.20
9466;DHT22;4771;48.726;9.006;2023-07-13T15:36:17;26.20;33.40
9466;DHT22;4771;48.726;9.006;2023-07-13T15:38:45;26.30;33.40
9466;DHT22;4771;48.726;9.006;2023-07-13T15:41:20;26.20;30.10
9466;DHT22;4771;48.726;9.006;2023-07-13T15:43:48;26.20;33.90
9466;DHT22;4771;48.726;9.006;2023-07-13T15:46:17;26.20;31.80
9466;DHT22;4771;48.726;9.006;2023-07-13T15:48:45;26.20;33.60
9466;DHT22;4771;48.726;9.006;2023-07-13T15:51:19;26.30;31.80
9466;DHT22;4771;48.726;9.006;2023-07-13T15:53:47;26.30;33.20
9466;DHT22;4771;48.726;9.006;2023-07-13T15:56:19;26.20;33.30
9466;DHT22;4771;48.726;9.006;2023-07-13T15:58:47;26.30;31.40
9466;DHT22;4771;48.726;9.006;2023-07-13T16:01:15;26.30;31.60
9466;DHT22;4771;48.726;9.006;2023-07-13T16:03:42;26.20;32.30
9466;DHT22;4771;48.726;9.006;2023-07-13T16:06:13;26.10;31.00
9466;DHT22;4771;48.726;9.006;2023-07-13T16:08:43;26.00;32.50
9466;DHT22;4771;48.726;9.006;2023-07-13T16:11:19;25.90;32.00
9466;DHT22;4771;48.726;9.006;2023-07-13T16:13:49;25.80;32.40